KBGM/BGM METAR and TAF weather

Enter ICAO airport designator
Station Type Date Time Source
KBGM METAR 2024/02/26 17:53 UTC NOAA

KBGM 261753Z 26009G15KT 10SM CLR 12/M03 A2992 RMK AO2 SLP139 T01221028 10122 20022 58004


Station Type Date Time Source
KBGM Decoded METAR 2024/02/26 17:53 UTC NOAA

BINGHAMTON REGIONAL AIRPORT, NY, United States (KBGM) 42-12N 75-59W 492M
Feb 26, 2024 - 12:53 PM EST / 2024.02.26 1753 UTC
Wind: from the W (260 degrees) at 10 MPH (9 KT) gusting to 17 MPH (15 KT):0
Visibility: 10 mile(s):0
Sky conditions: clear
Temperature: 54.0 F (12.2 C)
Dew Point: 27.0 F (-2.8 C)
Relative Humidity: 35%
Pressure (altimeter): 29.92 in. Hg (1013 hPa)
Pressure tendency: 0.01 inches (0.4 hPa) lower than three hours ago
ob: KBGM 261753Z 26009G15KT 10SM CLR 12/M03 A2992 RMK AO2 SLP139 T01221028 10122 20022 58004
cycle: 18

Station Type Date Time Source
KBGM TAF 2024/02/26 18:24 UTC NOAA